createdAt,value
2019-02-17T00:01:21.137Z,84.67
2019-02-17T00:03:49.197Z,84.44
2019-02-17T00:06:20.189Z,84.21
2019-02-17T00:08:48.727Z,84.01
2019-02-17T00:11:19.592Z,84.06
2019-02-17T00:13:49.676Z,84.30
2019-02-17T00:16:19.113Z,84.78
2019-02-17T00:18:49.934Z,85.50
2019-02-17T00:21:18.493Z,86.04
2019-02-17T00:23:47.098Z,86.46
2019-02-17T00:26:17.562Z,86.81
2019-02-17T00:28:45.474Z,86.99
2019-02-17T00:31:13.876Z,87.35
2019-02-17T00:33:42.144Z,87.71
2019-02-17T00:36:10.635Z,87.82
2019-02-17T00:38:39.798Z,87.87
2019-02-17T00:41:07.663Z,88.13
2019-02-17T00:43:36.115Z,88.83
2019-02-17T00:46:04.369Z,89.60
2019-02-17T00:48:35.407Z,89.97
2019-02-17T00:51:05.573Z,89.92
2019-02-17T00:53:33.378Z,89.78
2019-02-17T00:56:01.836Z,89.67
2019-02-17T00:58:31.176Z,89.52
2019-02-17T01:00:59.954Z,89.54
2019-02-17T01:03:27.936Z,89.51
2019-02-17T01:05:56.872Z,89.42
2019-02-17T01:08:27.475Z,89.41
2019-02-17T01:10:58.732Z,89.30
2019-02-17T01:13:28.383Z,89.38
2019-02-17T01:15:57.840Z,89.34
2019-02-17T01:18:26.312Z,89.54
2019-02-17T01:20:55.667Z,89.52
2019-02-17T01:23:24.622Z,89.60
2019-02-17T01:25:52.853Z,89.58
2019-02-17T01:28:22.737Z,89.66
2019-02-17T01:30:50.830Z,89.71
2019-02-17T01:33:21.890Z,89.81
2019-02-17T01:35:51.455Z,89.58
2019-02-17T01:38:19.407Z,89.58
2019-02-17T01:40:50.301Z,89.24
2019-02-17T01:43:19.089Z,89.06
2019-02-17T01:45:47.887Z,88.94
2019-02-17T01:48:16.301Z,88.77
2019-02-17T01:50:44.029Z,88.63
2019-02-17T01:53:12.427Z,88.54
2019-02-17T01:55:40.394Z,88.51
2019-02-17T01:58:08.996Z,88.56
2019-02-17T02:00:37.372Z,88.61
2019-02-17T02:03:05.523Z,88.62
2019-02-17T02:05:33.503Z,88.48
2019-02-17T02:08:02.289Z,88.43
2019-02-17T02:10:30.957Z,88.50
2019-02-17T02:12:59.387Z,88.71
2019-02-17T02:15:27.849Z,88.98
2019-02-17T02:17:56.074Z,89.24
2019-02-17T02:20:24.494Z,89.35
2019-02-17T02:22:52.418Z,89.63
2019-02-17T02:25:20.858Z,90.07
2019-02-17T02:27:50.569Z,90.86
2019-02-17T02:30:18.919Z,91.44
2019-02-17T02:32:47.117Z,91.70
2019-02-17T02:35:15.189Z,91.65
2019-02-17T02:37:43.120Z,91.55
2019-02-17T02:40:11.169Z,91.51
2019-02-17T02:42:39.658Z,91.61
2019-02-17T02:45:09.202Z,91.86
2019-02-17T02:47:37.320Z,92.07
2019-02-17T02:50:06.509Z,92.27
2019-02-17T02:52:34.408Z,92.46
2019-02-17T02:55:02.602Z,92.76
2019-02-17T02:57:31.077Z,93.09
2019-02-17T02:59:59.226Z,93.33
2019-02-17T03:02:27.354Z,93.56
2019-02-17T03:04:55.797Z,93.70
2019-02-17T03:07:23.947Z,93.75
2019-02-17T03:09:52.239Z,93.92
2019-02-17T03:12:20.947Z,93.91
2019-02-17T03:14:50.195Z,93.80
2019-02-17T03:17:18.147Z,93.67
2019-02-17T03:19:46.173Z,93.59
2019-02-17T03:22:14.136Z,93.45
2019-02-17T03:24:42.314Z,93.41
2019-02-17T03:27:10.835Z,93.68
2019-02-17T03:29:39.060Z,94.39
2019-02-17T03:32:06.998Z,95.11
2019-02-17T03:34:35.476Z,95.66
2019-02-17T03:37:03.537Z,96.02
2019-02-17T03:39:31.599Z,96.13
2019-02-17T03:42:00.299Z,96.15
2019-02-17T03:44:28.390Z,96.18
2019-02-17T03:46:56.605Z,96.19
2019-02-17T03:49:24.667Z,96.30
2019-02-17T03:51:52.606Z,96.25
2019-02-17T03:54:20.641Z,96.20
2019-02-17T03:56:48.531Z,96.15
2019-02-17T03:59:17.020Z,96.02
2019-02-17T04:01:45.087Z,95.81
2019-02-17T04:04:13.158Z,95.62
2019-02-17T04:06:41.548Z,95.48
2019-02-17T04:09:09.680Z,95.36
2019-02-17T04:11:37.471Z,95.27
2019-02-17T04:14:06.076Z,95.08
2019-02-17T04:16:34.099Z,95.07
2019-02-17T04:19:02.069Z,95.16
2019-02-17T04:21:33.311Z,95.19
2019-02-17T04:23:59.344Z,95.43
2019-02-17T04:26:27.680Z,95.75
2019-02-17T04:28:56.232Z,96.11
2019-02-17T04:31:24.224Z,96.36
2019-02-17T04:33:52.342Z,96.80
2019-02-17T04:36:20.072Z,97.08
2019-02-17T04:38:48.014Z,97.15
2019-02-17T04:41:16.224Z,97.13
2019-02-17T04:43:44.595Z,97.27
2019-02-17T04:46:12.699Z,97.59
2019-02-17T04:48:40.889Z,97.62
2019-02-17T04:51:09.427Z,97.81
2019-02-17T04:53:37.643Z,97.79
2019-02-17T04:56:05.908Z,97.74
2019-02-17T04:58:34.349Z,97.61
2019-02-17T05:01:02.472Z,97.42
2019-02-17T05:03:31.029Z,97.29
2019-02-17T05:05:59.312Z,97.13
2019-02-17T05:08:27.511Z,97.06
2019-02-17T05:10:55.804Z,97.21
2019-02-17T05:13:24.400Z,97.41
2019-02-17T05:15:52.896Z,97.58
2019-02-17T05:18:20.966Z,97.69
2019-02-17T05:20:49.351Z,97.87
2019-02-17T05:23:17.324Z,97.95
2019-02-17T05:25:45.649Z,98.05
2019-02-17T05:28:13.806Z,98.16
2019-02-17T05:30:52.309Z,98.41
2019-02-17T05:33:10.169Z,98.92
2019-02-17T05:35:38.706Z,99.41
2019-02-17T05:38:06.777Z,99.78
2019-02-17T05:40:36.412Z,100.00
2019-02-17T05:43:03.042Z,99.91
2019-02-17T05:45:31.223Z,99.69
2019-02-17T05:47:59.591Z,99.42
2019-02-17T05:50:28.800Z,99.14
2019-02-17T05:52:56.953Z,98.78
2019-02-17T05:55:25.171Z,98.62
2019-02-17T05:57:53.758Z,98.40
2019-02-17T06:00:31.711Z,98.15
2019-02-17T06:02:59.827Z,97.85
2019-02-17T06:05:27.992Z,97.62
2019-02-17T06:07:58.729Z,97.55
2019-02-17T06:10:46.971Z,97.43
2019-02-17T06:13:23.132Z,97.30
2019-02-17T06:15:51.840Z,97.20
2019-02-17T06:18:21.658Z,97.25
2019-02-17T06:20:50.953Z,97.30
2019-02-17T06:23:19.241Z,97.22
2019-02-17T06:25:47.928Z,97.17
2019-02-17T06:28:16.049Z,97.26
2019-02-17T06:30:44.541Z,97.41
2019-02-17T06:33:13.628Z,97.70
2019-02-17T06:35:41.854Z,98.04
2019-02-17T06:38:10.069Z,97.93
2019-02-17T06:40:38.360Z,98.37
2019-02-17T06:43:06.144Z,98.58
2019-02-17T06:45:34.720Z,98.87
2019-02-17T06:48:02.932Z,99.11
2019-02-17T06:50:32.818Z,99.37
2019-02-17T06:52:59.305Z,99.67
2019-02-17T06:55:37.934Z,99.85
2019-02-17T06:58:06.136Z,100.00
2019-02-17T07:00:36.474Z,100.00
2019-02-17T07:03:04.250Z,100.00
2019-02-17T07:05:46.164Z,100.00
2019-02-17T07:08:14.209Z,100.00
2019-02-17T07:10:42.420Z,100.00
2019-02-17T07:13:10.899Z,100.00
2019-02-17T07:15:42.667Z,100.00
2019-02-17T07:18:11.134Z,100.00
2019-02-17T07:20:39.304Z,100.00
2019-02-17T07:23:07.205Z,100.00
2019-02-17T07:25:35.386Z,100.00
2019-02-17T07:28:03.324Z,100.00
2019-02-17T07:30:33.942Z,100.00
2019-02-17T07:33:01.933Z,100.00
2019-02-17T07:35:29.878Z,100.00
2019-02-17T07:37:59.771Z,100.00
2019-02-17T07:40:29.030Z,100.00
2019-02-17T07:42:56.950Z,100.00
2019-02-17T07:45:25.048Z,100.00
2019-02-17T07:47:53.239Z,100.00
2019-02-17T07:50:21.505Z,100.00
2019-02-17T07:52:49.355Z,100.00
2019-02-17T07:55:17.111Z,100.00
2019-02-17T07:57:45.314Z,100.00
2019-02-17T08:00:13.766Z,100.00
2019-02-17T08:02:42.123Z,100.00
2019-02-17T08:05:10.178Z,100.00
2019-02-17T08:07:38.576Z,100.00
2019-02-17T08:10:07.192Z,100.00
2019-02-17T08:12:35.267Z,100.00
2019-02-17T08:15:03.917Z,100.00
2019-02-17T08:17:32.005Z,100.00
2019-02-17T08:20:00.168Z,100.00
2019-02-17T08:22:29.459Z,100.00
2019-02-17T08:24:57.752Z,100.00
2019-02-17T08:27:25.783Z,100.00
2019-02-17T08:29:53.992Z,100.00
2019-02-17T08:32:21.748Z,100.00
2019-02-17T08:34:49.863Z,100.00
2019-02-17T08:37:17.627Z,100.00
2019-02-17T08:39:46.307Z,100.00
2019-02-17T08:42:16.581Z,99.39
2019-02-17T08:44:47.684Z,99.04
2019-02-17T08:47:15.532Z,98.73
2019-02-17T08:49:46.295Z,98.20
2019-02-17T08:52:14.953Z,97.61
2019-02-17T08:54:43.243Z,96.92
2019-02-17T08:57:11.332Z,96.15
2019-02-17T08:59:39.453Z,94.93
2019-02-17T09:02:09.832Z,94.28
2019-02-17T09:04:38.664Z,93.70
2019-02-17T09:07:07.685Z,92.63
2019-02-17T09:09:35.838Z,91.97
2019-02-17T09:12:04.872Z,91.00
2019-02-17T09:14:36.285Z,90.47
2019-02-17T09:17:04.352Z,89.59
2019-02-17T09:19:34.635Z,88.18
2019-02-17T09:22:03.463Z,87.14
2019-02-17T09:24:31.663Z,85.83
2019-02-17T09:27:00.193Z,85.12
2019-02-17T09:29:29.692Z,84.11
2019-02-17T09:32:00.612Z,82.81
2019-02-17T09:34:31.735Z,82.09
2019-02-17T09:37:02.881Z,81.35
2019-02-17T09:39:36.667Z,81.23
2019-02-17T09:42:04.517Z,80.18
2019-02-17T09:44:35.622Z,78.68
2019-02-17T09:47:05.350Z,78.88
2019-02-17T09:49:39.322Z,79.52
2019-02-17T09:52:08.470Z,79.52
2019-02-17T09:54:36.918Z,78.34
2019-02-17T09:57:06.170Z,77.10
2019-02-17T09:59:34.478Z,76.48
2019-02-17T10:02:02.593Z,78.09
2019-02-17T10:04:31.343Z,78.08
2019-02-17T10:07:01.774Z,78.22
2019-02-17T10:09:29.769Z,78.00
2019-02-17T10:11:57.928Z,77.44
2019-02-17T10:14:26.150Z,77.50
2019-02-17T10:16:54.652Z,77.43
2019-02-17T10:19:24.488Z,77.62
2019-02-17T10:21:53.582Z,76.49
2019-02-17T10:24:22.263Z,75.97
2019-02-17T10:26:53.406Z,76.04
2019-02-17T10:29:25.686Z,76.93
2019-02-17T10:31:57.176Z,76.56
2019-02-17T10:34:27.095Z,76.77
2019-02-17T10:36:55.198Z,76.59
2019-02-17T10:39:23.608Z,75.24
2019-02-17T10:41:51.662Z,74.92
2019-02-17T10:44:19.625Z,75.06
2019-02-17T10:46:47.792Z,75.38
2019-02-17T10:49:16.247Z,75.77
2019-02-17T10:51:44.365Z,76.81
2019-02-17T10:54:13.839Z,77.25
2019-02-17T10:56:43.372Z,75.33
2019-02-17T10:59:11.994Z,75.16
2019-02-17T11:01:39.873Z,74.72
2019-02-17T11:04:13.613Z,73.07
2019-02-17T11:06:41.963Z,71.90
2019-02-17T11:09:19.387Z,72.39
2019-02-17T11:11:47.204Z,71.75
2019-02-17T11:14:15.233Z,72.90
2019-02-17T11:16:46.385Z,73.88
2019-02-17T11:19:18.100Z,72.28
2019-02-17T11:21:55.820Z,71.24
2019-02-17T11:24:25.360Z,69.80
2019-02-17T11:26:57.343Z,70.49
2019-02-17T11:29:25.673Z,70.67
2019-02-17T11:31:53.981Z,70.58
2019-02-17T11:34:21.868Z,70.38
2019-02-17T11:36:49.945Z,70.55
2019-02-17T11:39:21.460Z,69.91
2019-02-17T11:41:49.580Z,70.27
2019-02-17T11:44:18.865Z,68.36
2019-02-17T11:46:49.091Z,66.17
2019-02-17T11:49:22.446Z,66.02
2019-02-17T11:51:54.134Z,66.14
2019-02-17T11:54:22.527Z,63.71
2019-02-17T11:56:51.690Z,64.30
2019-02-17T11:59:21.012Z,64.45
2019-02-17T12:01:48.897Z,63.62
2019-02-17T12:04:25.002Z,62.93
2019-02-17T12:06:54.677Z,64.10
2019-02-17T12:09:25.200Z,64.29
2019-02-17T12:11:53.774Z,63.99
2019-02-17T12:14:26.425Z,63.64
2019-02-17T12:16:55.103Z,63.40
2019-02-17T12:19:29.068Z,64.42
2019-02-17T12:22:03.938Z,63.22
2019-02-17T12:24:40.769Z,62.56
2019-02-17T12:27:18.454Z,61.92
2019-02-17T12:29:51.208Z,61.02
2019-02-17T12:32:22.057Z,60.20
2019-02-17T12:34:50.086Z,60.89
2019-02-17T12:39:52.977Z,60.25
2019-02-17T12:42:20.867Z,58.76
2019-02-17T12:44:48.621Z,57.92
2019-02-17T12:47:19.617Z,58.24
2019-02-17T12:49:47.875Z,58.76
2019-02-17T12:52:16.850Z,58.69
2019-02-17T12:54:46.203Z,58.56
2019-02-17T12:57:25.223Z,57.71
2019-02-17T12:59:53.830Z,57.48
2019-02-17T13:02:21.950Z,55.61
2019-02-17T13:04:54.083Z,56.30
2019-02-17T13:07:22.525Z,57.50
2019-02-17T13:09:50.462Z,57.16
2019-02-17T13:12:19.328Z,57.20
2019-02-17T13:14:50.003Z,56.11
2019-02-17T13:17:22.271Z,55.71
2019-02-17T13:19:52.627Z,56.19
2019-02-17T13:22:23.533Z,56.91
2019-02-17T13:24:53.812Z,57.42
2019-02-17T13:27:22.068Z,57.74
2019-02-17T13:29:50.268Z,57.51
2019-02-17T13:32:23.634Z,57.31
2019-02-17T13:34:52.094Z,57.65
2019-02-17T13:37:23.490Z,58.28
2019-02-17T13:39:52.559Z,58.98
2019-02-17T13:42:23.164Z,59.09
2019-02-17T13:44:57.471Z,59.44
2019-02-17T13:47:28.925Z,59.35
2019-02-17T13:49:57.012Z,59.74
2019-02-17T13:52:26.027Z,60.41
2019-02-17T13:54:57.412Z,60.44
2019-02-17T13:57:25.876Z,60.32
2019-02-17T13:59:53.771Z,60.50
2019-02-17T14:02:22.418Z,60.61
2019-02-17T14:04:51.205Z,60.64
2019-02-17T14:07:20.498Z,60.05
2019-02-17T14:09:49.570Z,60.20
2019-02-17T14:12:26.433Z,59.94
2019-02-17T14:14:56.571Z,60.32
2019-02-17T14:17:26.609Z,60.96
2019-02-17T14:19:56.475Z,60.71
2019-02-17T14:22:24.356Z,60.84
2019-02-17T14:24:52.605Z,60.86
2019-02-17T14:27:21.158Z,60.64
2019-02-17T14:29:59.220Z,61.27
2019-02-17T14:32:27.465Z,61.08
2019-02-17T14:34:55.756Z,60.98
2019-02-17T14:37:24.349Z,60.91
2019-02-17T14:39:52.593Z,60.49
2019-02-17T14:42:20.522Z,60.42
2019-02-17T14:44:48.984Z,60.74
2019-02-17T14:47:17.322Z,60.76
2019-02-17T14:49:45.459Z,60.61
2019-02-17T14:52:14.169Z,60.72
2019-02-17T14:54:42.606Z,60.74
2019-02-17T14:57:10.792Z,60.76
2019-02-17T14:59:39.990Z,60.92
2019-02-17T15:02:08.795Z,61.01
2019-02-17T15:04:37.035Z,61.25
2019-02-17T15:07:05.768Z,61.44
2019-02-17T15:09:34.113Z,61.57
2019-02-17T15:12:02.884Z,61.87
2019-02-17T15:14:31.583Z,62.18
2019-02-17T15:16:59.393Z,62.54
2019-02-17T15:19:27.600Z,62.86
2019-02-17T15:21:55.774Z,63.16
2019-02-17T15:24:24.716Z,63.40
2019-02-17T15:26:52.582Z,63.88
2019-02-17T15:29:20.834Z,64.15
2019-02-17T15:31:49.379Z,64.56
2019-02-17T15:34:18.953Z,64.86
2019-02-17T15:36:49.469Z,65.09
2019-02-17T15:39:17.758Z,65.15
2019-02-17T15:41:46.159Z,64.79
2019-02-17T15:44:15.224Z,63.63
2019-02-17T15:46:43.469Z,62.67
2019-02-17T15:49:11.421Z,61.57
2019-02-17T15:51:39.932Z,60.60
2019-02-17T15:54:08.717Z,59.06
2019-02-17T15:56:39.797Z,58.47
2019-02-17T15:59:08.604Z,58.62
2019-02-17T16:01:37.868Z,58.28
2019-02-17T16:04:07.365Z,57.95
2019-02-17T16:06:36.498Z,57.44
2019-02-17T16:09:06.808Z,56.71
2019-02-17T16:11:35.253Z,56.09
2019-02-17T16:14:03.664Z,54.83
2019-02-17T16:16:32.327Z,54.45
2019-02-17T16:19:02.510Z,54.13
2019-02-17T16:21:30.512Z,54.03
2019-02-17T16:24:00.307Z,54.09
2019-02-17T16:26:28.470Z,54.21
2019-02-17T16:28:56.656Z,54.27
2019-02-17T16:31:28.614Z,54.48
2019-02-17T16:33:57.755Z,54.82
2019-02-17T16:36:28.721Z,55.07
2019-02-17T16:38:56.651Z,55.33
2019-02-17T16:41:25.621Z,55.66
2019-02-17T16:43:53.783Z,56.12
2019-02-17T16:46:22.026Z,55.90
2019-02-17T16:48:51.230Z,55.50
2019-02-17T16:51:19.531Z,54.68
2019-02-17T16:53:47.378Z,54.27
2019-02-17T16:56:17.129Z,54.13
2019-02-17T16:58:45.153Z,53.63
2019-02-17T17:01:13.395Z,53.59
2019-02-17T17:03:43.268Z,53.42
2019-02-17T17:06:11.313Z,53.32
2019-02-17T17:08:40.185Z,53.42
2019-02-17T17:11:09.863Z,53.60
2019-02-17T17:13:39.077Z,53.66
2019-02-17T17:16:07.666Z,53.71
2019-02-17T17:18:35.955Z,53.58
2019-02-17T17:21:04.000Z,53.51
2019-02-17T17:23:31.794Z,53.71
2019-02-17T17:25:59.614Z,53.58
2019-02-17T17:28:27.767Z,53.41
2019-02-17T17:30:55.713Z,53.66
2019-02-17T17:33:23.660Z,53.84
2019-02-17T17:35:52.192Z,53.39
2019-02-17T17:38:20.745Z,53.49
2019-02-17T17:40:51.101Z,53.55
2019-02-17T17:43:20.531Z,53.69
2019-02-17T17:45:48.315Z,54.04
2019-02-17T17:48:16.898Z,54.16
2019-02-17T17:50:45.026Z,54.15
2019-02-17T17:53:14.190Z,54.13
2019-02-17T17:55:44.408Z,54.22
2019-02-17T17:58:12.530Z,54.09
2019-02-17T18:00:43.669Z,53.95
2019-02-17T18:03:12.595Z,53.73
2019-02-17T18:05:40.505Z,53.59
2019-02-17T18:08:09.018Z,53.60
2019-02-17T18:10:37.441Z,53.54
2019-02-17T18:13:07.089Z,53.29
2019-02-17T18:15:35.387Z,53.37
2019-02-17T18:18:09.149Z,53.43
2019-02-17T18:20:37.415Z,53.39
2019-02-17T18:23:06.499Z,53.68
2019-02-17T18:25:34.457Z,53.79
2019-02-17T18:28:03.925Z,54.15
2019-02-17T18:30:32.272Z,54.27
2019-02-17T18:33:02.408Z,54.52
2019-02-17T18:35:30.793Z,54.63
2019-02-17T18:38:00.538Z,54.68
2019-02-17T18:40:29.151Z,54.67
2019-02-17T18:42:57.281Z,54.69
2019-02-17T18:45:27.178Z,54.71
2019-02-17T18:47:55.663Z,54.95
2019-02-17T18:50:24.207Z,54.97
2019-02-17T18:52:52.519Z,54.98
2019-02-17T18:55:20.493Z,55.11
2019-02-17T18:57:50.904Z,55.32
2019-02-17T19:00:17.947Z,55.43
2019-02-17T19:02:46.174Z,55.63
2019-02-17T19:05:14.317Z,55.71
2019-02-17T19:07:43.700Z,55.81
2019-02-17T19:10:11.797Z,56.00
2019-02-17T19:12:44.601Z,56.13
2019-02-17T19:15:12.896Z,56.25
2019-02-17T19:17:40.759Z,56.33
2019-02-17T19:20:10.833Z,56.28
2019-02-17T19:22:38.618Z,56.38
2019-02-17T19:25:07.766Z,56.61
2019-02-17T19:27:35.874Z,56.71
2019-02-17T19:30:06.526Z,56.86
2019-02-17T19:32:35.345Z,57.12
2019-02-17T19:35:06.785Z,57.31
2019-02-17T19:37:34.967Z,57.53
2019-02-17T19:40:04.097Z,57.72
2019-02-17T19:42:32.499Z,58.00
2019-02-17T19:45:03.153Z,58.20
2019-02-17T19:47:31.002Z,58.41
2019-02-17T19:50:03.875Z,58.63
2019-02-17T19:52:32.890Z,58.63
2019-02-17T19:55:00.943Z,58.50
2019-02-17T19:57:29.513Z,58.53
2019-02-17T19:59:57.509Z,58.49
2019-02-17T20:02:35.083Z,58.53
2019-02-17T20:05:07.560Z,58.37
2019-02-17T20:07:35.782Z,58.43
2019-02-17T20:10:07.238Z,58.42
2019-02-17T20:12:35.325Z,58.64
2019-02-17T20:15:04.753Z,58.70
2019-02-17T20:17:32.826Z,58.79
2019-02-17T20:20:05.150Z,58.95
2019-02-17T20:22:34.751Z,58.92
2019-02-17T20:25:04.863Z,59.07
2019-02-17T20:27:32.783Z,59.13
2019-02-17T20:30:01.508Z,59.24
2019-02-17T20:32:30.546Z,59.31
2019-02-17T20:34:59.736Z,59.43
2019-02-17T20:37:32.610Z,59.70
2019-02-17T20:40:01.123Z,59.91
2019-02-17T20:42:28.962Z,60.07
2019-02-17T20:44:57.283Z,60.34
2019-02-17T20:47:25.936Z,60.52
2019-02-17T20:49:53.745Z,60.84
2019-02-17T20:52:21.934Z,61.13
2019-02-17T20:54:51.094Z,61.52
2019-02-17T20:57:22.897Z,61.87
2019-02-17T20:59:51.242Z,62.35
2019-02-17T21:02:21.036Z,62.41
2019-02-17T21:04:51.017Z,62.78
2019-02-17T21:07:18.808Z,63.29
2019-02-17T21:09:46.620Z,63.67
2019-02-17T21:12:14.694Z,64.03
2019-02-17T21:14:42.652Z,64.31
2019-02-17T21:17:10.934Z,64.66
2019-02-17T21:19:38.938Z,65.04
2019-02-17T21:22:06.811Z,65.40
2019-02-17T21:24:34.998Z,65.71
2019-02-17T21:27:03.053Z,65.96
2019-02-17T21:29:31.689Z,66.31
2019-02-17T21:31:59.964Z,66.69
2019-02-17T21:34:27.978Z,66.82
2019-02-17T21:36:56.981Z,67.04
2019-02-17T21:39:25.354Z,67.27
2019-02-17T21:41:53.136Z,67.59
2019-02-17T21:44:21.809Z,67.82
2019-02-17T21:46:49.937Z,68.04
2019-02-17T21:49:18.219Z,68.23
2019-02-17T21:51:46.797Z,68.32
2019-02-17T21:54:15.287Z,68.69
2019-02-17T21:56:43.779Z,68.97
2019-02-17T21:59:11.621Z,69.32
2019-02-17T22:01:39.648Z,69.59
2019-02-17T22:04:07.626Z,70.03
2019-02-17T22:06:35.852Z,70.37
2019-02-17T22:09:05.296Z,70.74
2019-02-17T22:11:33.555Z,70.99
2019-02-17T22:14:01.331Z,70.90
2019-02-17T22:16:29.146Z,71.05
2019-02-17T22:18:57.113Z,71.00
2019-02-17T22:21:25.267Z,71.03
2019-02-17T22:23:53.305Z,71.21
2019-02-17T22:26:21.381Z,71.43
2019-02-17T22:28:49.292Z,71.68
2019-02-17T22:31:17.372Z,71.95
2019-02-17T22:33:46.014Z,72.51
2019-02-17T22:36:14.014Z,72.96
2019-02-17T22:38:41.775Z,73.13
2019-02-17T22:41:09.864Z,73.52
2019-02-17T22:43:37.623Z,73.66
2019-02-17T22:46:05.419Z,73.79
2019-02-17T22:48:33.604Z,74.12
2019-02-17T22:51:01.731Z,74.23
2019-02-17T22:53:29.784Z,74.44
2019-02-17T22:55:58.057Z,74.63
2019-02-17T22:58:26.041Z,74.92
2019-02-17T23:00:59.034Z,74.96
2019-02-17T23:03:29.297Z,74.91
2019-02-17T23:05:57.534Z,75.09
2019-02-17T23:08:26.044Z,75.62
2019-02-17T23:10:54.438Z,75.61
2019-02-17T23:13:23.024Z,75.86
2019-02-17T23:15:51.828Z,76.04
2019-02-17T23:18:19.847Z,76.08
2019-02-17T23:20:47.831Z,76.04
2019-02-17T23:23:15.772Z,75.86
2019-02-17T23:25:43.927Z,75.69
2019-02-17T23:28:11.919Z,75.51
2019-02-17T23:30:40.065Z,75.32
2019-02-17T23:33:08.232Z,74.96
2019-02-17T23:35:35.931Z,74.63
2019-02-17T23:38:04.291Z,74.48
2019-02-17T23:40:32.408Z,74.53
2019-02-17T23:43:00.400Z,74.56
2019-02-17T23:45:28.830Z,74.69
2019-02-17T23:47:57.161Z,74.82
2019-02-17T23:50:25.051Z,75.05
2019-02-17T23:52:54.703Z,75.25
2019-02-17T23:55:21.060Z,75.64
2019-02-17T23:57:49.484Z,76.23
